createdAt,value
2022-10-24T00:00:46.201Z,98843.53
2022-10-24T00:02:48.917Z,98826.50
2022-10-24T00:04:51.937Z,98825.69
2022-10-24T00:06:54.538Z,98820.06
2022-10-24T00:08:57.107Z,98822.59
2022-10-24T00:10:59.660Z,98828.31
2022-10-24T00:13:02.919Z,98824.81
2022-10-24T00:15:06.773Z,98818.28
2022-10-24T00:17:09.399Z,98801.16
2022-10-24T00:19:12.001Z,98805.50
2022-10-24T00:21:15.415Z,98806.31
2022-10-24T00:23:17.933Z,98790.81
2022-10-24T00:25:20.567Z,98798.16
2022-10-24T00:27:23.209Z,98794.84
2022-10-24T00:29:25.768Z,98795.94
2022-10-24T00:31:28.742Z,98785.88
2022-10-24T00:33:31.762Z,98782.66
2022-10-24T00:35:34.741Z,98784.28
2022-10-24T00:37:37.536Z,98775.59
2022-10-24T00:39:40.084Z,98771.56
2022-10-24T00:41:43.405Z,98777.81
2022-10-24T00:43:46.126Z,98775.28
2022-10-24T00:45:56.972Z,98759.50
2022-10-24T00:48:00.105Z,98761.00
2022-10-24T00:50:11.927Z,98748.53
2022-10-24T00:52:18.286Z,98754.53
2022-10-24T00:54:21.703Z,98763.00
2022-10-24T00:56:29.736Z,98765.72
2022-10-24T00:58:35.029Z,98752.22
2022-10-24T01:00:37.650Z,98751.97
2022-10-24T01:02:40.335Z,98745.88
2022-10-24T01:04:44.839Z,98765.13
2022-10-24T01:06:50.446Z,98743.69
2022-10-24T01:09:15.161Z,98740.53
2022-10-24T01:11:20.481Z,98736.50
2022-10-24T01:13:40.089Z,98732.75
2022-10-24T01:15:42.499Z,98733.56
2022-10-24T01:18:31.384Z,98721.16
2022-10-24T01:21:06.372Z,98736.41
2022-10-24T01:23:31.938Z,98723.63
2022-10-24T01:26:05.301Z,98726.66
2022-10-24T01:28:29.012Z,98724.81
2022-10-24T01:30:42.631Z,98725.63
2022-10-24T01:32:55.254Z,98722.41
2022-10-24T01:35:21.315Z,98716.97
2022-10-24T01:37:36.731Z,98706.63
2022-10-24T01:39:47.887Z,98716.09
2022-10-24T01:41:52.952Z,98699.63
2022-10-24T01:44:03.494Z,98691.72
2022-10-24T01:46:13.673Z,98689.28
2022-10-24T01:48:20.244Z,98688.50
2022-10-24T01:50:26.855Z,98688.72
2022-10-24T01:52:34.869Z,98681.16
2022-10-24T01:54:39.607Z,98680.06
2022-10-24T01:56:42.299Z,98671.94
2022-10-24T01:58:45.806Z,98694.97
2022-10-24T02:00:55.350Z,98679.75
2022-10-24T02:03:05.031Z,98676.75
2022-10-24T02:05:10.348Z,98673.75
2022-10-24T02:07:14.314Z,98667.72
2022-10-24T02:09:19.132Z,98667.22
2022-10-24T02:11:21.857Z,98670.16
2022-10-24T02:13:51.396Z,98650.63
2022-10-24T02:15:57.651Z,98648.72
2022-10-24T02:18:00.899Z,98662.59
2022-10-24T02:20:04.043Z,98645.81
2022-10-24T02:22:24.489Z,98654.44
2022-10-24T02:24:32.594Z,98645.28
2022-10-24T02:26:49.377Z,98627.97
2022-10-24T02:28:54.285Z,98626.56
2022-10-24T02:31:03.211Z,98619.75
2022-10-24T02:33:06.066Z,98624.66
2022-10-24T02:35:11.664Z,98629.81
2022-10-24T02:37:16.453Z,98622.75
2022-10-24T02:39:19.938Z,98626.56
2022-10-24T02:41:30.734Z,98623.06
2022-10-24T02:43:34.617Z,98619.75
2022-10-24T02:45:39.135Z,98611.59
2022-10-24T02:47:44.689Z,98605.09
2022-10-24T02:49:47.865Z,98606.69
2022-10-24T02:51:52.294Z,98586.66
2022-10-24T02:53:55.610Z,98598.03
2022-10-24T02:55:58.303Z,98602.38
2022-10-24T02:58:00.968Z,98603.97
2022-10-24T03:00:20.523Z,98599.34
2022-10-24T03:02:23.827Z,98596.34
2022-10-24T03:04:26.390Z,98593.09
2022-10-24T03:06:28.946Z,98588.47
2022-10-24T03:08:31.600Z,98585.75
2022-10-24T03:10:34.178Z,98571.09
2022-10-24T03:12:36.776Z,98583.28
2022-10-24T03:14:39.309Z,98577.00
2022-10-24T03:16:41.958Z,98569.69
2022-10-24T03:18:44.599Z,98571.31
2022-10-24T03:20:47.331Z,98573.81
2022-10-24T03:22:49.889Z,98566.09
2022-10-24T03:24:55.851Z,98563.66
2022-10-24T03:26:58.513Z,98564.97
2022-10-24T03:29:01.422Z,98557.06
2022-10-24T03:31:04.472Z,98550.59
2022-10-24T03:33:07.097Z,98552.19
2022-10-24T03:35:13.224Z,98548.41
2022-10-24T03:37:16.929Z,98550.78
2022-10-24T03:39:19.522Z,98547.28
2022-10-24T03:41:22.151Z,98535.63
2022-10-24T03:43:24.736Z,98535.09
2022-10-24T03:45:27.416Z,98533.69
2022-10-24T03:47:29.947Z,98537.22
2022-10-24T03:49:32.605Z,98521.75
2022-10-24T03:51:35.162Z,98517.13
2022-10-24T03:53:37.754Z,98524.94
2022-10-24T03:55:40.501Z,98529.00
2022-10-24T03:57:43.328Z,98518.94
2022-10-24T03:59:46.150Z,98521.03
2022-10-24T04:01:48.800Z,98517.72
2022-10-24T04:03:51.424Z,98515.00
2022-10-24T04:05:54.919Z,98522.06
2022-10-24T04:07:57.554Z,98519.88
2022-10-24T04:10:00.100Z,98517.44
2022-10-24T04:12:02.702Z,98511.50
2022-10-24T04:14:05.669Z,98514.44
2022-10-24T04:16:08.813Z,98510.09
2022-10-24T04:18:11.449Z,98506.28
2022-10-24T04:20:14.230Z,98508.69
2022-10-24T04:22:16.899Z,98510.31
2022-10-24T04:24:19.548Z,98495.59
2022-10-24T04:26:22.219Z,98501.03
2022-10-24T04:28:24.843Z,98506.47
2022-10-24T04:30:29.698Z,98499.94
2022-10-24T04:32:32.337Z,98487.06
2022-10-24T04:34:38.960Z,98493.50
2022-10-24T04:36:41.504Z,98494.28
2022-10-24T04:38:44.125Z,98494.81
2022-10-24T04:40:51.573Z,98487.34
2022-10-24T04:42:54.136Z,98490.91
2022-10-24T04:44:56.777Z,98488.47
2022-10-24T04:46:59.340Z,98485.97
2022-10-24T04:49:01.861Z,98481.34
2022-10-24T04:51:04.776Z,98477.22
2022-10-24T04:53:07.496Z,98486.38
2022-10-24T04:55:10.031Z,98472.28
2022-10-24T04:57:12.665Z,98478.69
2022-10-24T04:59:15.275Z,98477.78
2022-10-24T05:01:18.265Z,98478.91
2022-10-24T05:03:22.358Z,98476.69
2022-10-24T05:05:25.338Z,98469.47
2022-10-24T05:07:28.150Z,98473.97
2022-10-24T05:09:31.051Z,98478.50
2022-10-24T05:11:34.094Z,98477.38
2022-10-24T05:13:36.978Z,98473.25
2022-10-24T05:15:39.969Z,98461.28
2022-10-24T05:17:42.550Z,98472.66
2022-10-24T05:19:45.133Z,98464.19
2022-10-24T05:21:47.672Z,98456.53
2022-10-24T05:23:50.288Z,98457.06
2022-10-24T05:25:53.247Z,98463.28
2022-10-24T05:27:56.545Z,98447.31
2022-10-24T05:29:59.624Z,98453.72
2022-10-24T05:32:02.469Z,98457.44
2022-10-24T05:34:05.228Z,98448.19
2022-10-24T05:36:09.023Z,98438.13
2022-10-24T05:38:12.162Z,98451.72
2022-10-24T05:40:15.224Z,98440.34
2022-10-24T05:42:18.353Z,98434.91
2022-10-24T05:44:21.024Z,98433.97
2022-10-24T05:46:23.953Z,98428.72
2022-10-24T05:48:26.645Z,98427.13
2022-10-24T05:50:30.253Z,98424.13
2022-10-24T05:52:33.279Z,98414.34
2022-10-24T05:54:48.436Z,98398.75
2022-10-24T05:56:58.561Z,98410.69
2022-10-24T05:59:01.215Z,98417.25
2022-10-24T06:01:04.155Z,98409.09
2022-10-24T06:03:06.791Z,98408.28
2022-10-24T06:05:10.186Z,98405.25
2022-10-24T06:07:13.015Z,98400.81
2022-10-24T06:09:15.686Z,98392.97
2022-10-24T06:11:19.049Z,98390.56
2022-10-24T06:13:21.748Z,98390.56
2022-10-24T06:15:24.416Z,98404.34
2022-10-24T06:17:27.185Z,98382.47
2022-10-24T06:19:29.810Z,98397.06
2022-10-24T06:21:32.374Z,98384.25
2022-10-24T06:23:35.510Z,98378.03
2022-10-24T06:25:41.742Z,98388.78
2022-10-24T06:27:44.408Z,98370.38
2022-10-24T06:29:47.056Z,98377.91
2022-10-24T06:31:49.651Z,98363.38
2022-10-24T06:33:54.343Z,98362.75
2022-10-24T06:36:00.660Z,98368.69
2022-10-24T06:38:03.270Z,98362.63
2022-10-24T06:40:06.401Z,98358.78
2022-10-24T06:42:09.034Z,98349.84
2022-10-24T06:44:11.797Z,98353.16
2022-10-24T06:46:17.202Z,98345.00
2022-10-24T06:48:19.817Z,98336.03
2022-10-24T06:50:22.422Z,98337.34
2022-10-24T06:52:25.074Z,98330.47
2022-10-24T06:54:30.197Z,98331.78
2022-10-24T06:56:33.192Z,98328.56
2022-10-24T06:58:38.424Z,98325.22
2022-10-24T07:00:41.229Z,98318.97
2022-10-24T07:02:44.093Z,98316.06
2022-10-24T07:04:47.258Z,98326.94
2022-10-24T07:06:49.985Z,98318.47
2022-10-24T07:08:54.594Z,98322.00
2022-10-24T07:10:57.412Z,98309.81
2022-10-24T07:13:00.040Z,98286.59
2022-10-24T07:15:04.359Z,98301.03
2022-10-24T07:17:07.830Z,98296.59
2022-10-24T07:19:11.345Z,98288.13
2022-10-24T07:21:23.809Z,98288.63
2022-10-24T07:23:26.489Z,98278.53
2022-10-24T07:25:29.280Z,98288.78
2022-10-24T07:27:32.854Z,98286.84
2022-10-24T07:29:38.451Z,98289.28
2022-10-24T07:31:41.125Z,98287.34
2022-10-24T07:33:44.005Z,98263.66
2022-10-24T07:35:46.648Z,98275.84
2022-10-24T07:37:49.723Z,98267.22
2022-10-24T07:39:52.522Z,98266.91
2022-10-24T07:41:55.073Z,98264.19
2022-10-24T07:43:58.886Z,98249.34
2022-10-24T07:46:06.737Z,98254.44
2022-10-24T07:48:10.527Z,98248.41
2022-10-24T07:50:13.274Z,98253.34
2022-10-24T07:52:15.880Z,98254.94
2022-10-24T07:54:18.499Z,98241.97
2022-10-24T07:56:22.261Z,98238.75
2022-10-24T07:58:24.848Z,98253.84
2022-10-24T08:00:27.444Z,98243.41
2022-10-24T08:02:30.019Z,98239.59
2022-10-24T08:04:32.677Z,98239.59
2022-10-24T08:06:35.597Z,98229.34
2022-10-24T08:08:38.971Z,98235.91
2022-10-24T08:10:41.777Z,98241.66
2022-10-24T08:12:44.652Z,98225.66
2022-10-24T08:14:47.829Z,98229.69
2022-10-24T08:16:50.767Z,98223.28
2022-10-24T08:18:56.145Z,98211.25
2022-10-24T08:21:05.523Z,98214.00
2022-10-24T08:23:08.358Z,98210.97
2022-10-24T08:25:11.464Z,98207.41
2022-10-24T08:27:15.225Z,98208.84
2022-10-24T08:29:22.942Z,98211.44
2022-10-24T08:31:26.729Z,98201.00
2022-10-24T08:33:30.413Z,98200.41
2022-10-24T08:35:33.015Z,98207.75
2022-10-24T08:39:45.691Z,98214.16
2022-10-24T08:41:59.546Z,98197.22
2022-10-24T08:44:07.193Z,98201.22
2022-10-24T08:46:15.668Z,98189.97
2022-10-24T08:48:27.699Z,98196.56
2022-10-24T08:50:36.762Z,98201.84
2022-10-24T08:52:48.379Z,98202.34
2022-10-24T08:54:54.036Z,98198.47
2022-10-24T08:56:59.958Z,98202.81
2022-10-24T08:59:03.807Z,98196.72
2022-10-24T09:01:14.636Z,98189.03
2022-10-24T09:06:06.660Z,98188.06
2022-10-24T09:08:27.483Z,98192.56
2022-10-24T09:10:51.246Z,98198.50
2022-10-24T09:12:54.205Z,98181.34
2022-10-24T09:14:59.906Z,98175.91
2022-10-24T09:19:24.774Z,98177.97
2022-10-24T09:21:28.026Z,98176.06
2022-10-24T09:23:34.439Z,98165.00
2022-10-24T09:25:41.879Z,98169.97
2022-10-24T09:27:45.707Z,98170.47
2022-10-24T09:29:49.085Z,98166.13
2022-10-24T09:31:51.930Z,98174.28
2022-10-24T09:33:56.908Z,98155.56
2022-10-24T09:36:05.004Z,98168.38
2022-10-24T09:38:28.241Z,98168.38
2022-10-24T09:40:34.036Z,98168.38
2022-10-24T09:42:38.779Z,98161.00
2022-10-24T09:44:41.570Z,98169.66
2022-10-24T09:46:48.232Z,98154.13
2022-10-24T09:49:03.247Z,98154.44
2022-10-24T09:51:07.535Z,98152.97
2022-10-24T09:53:29.062Z,98146.75
2022-10-24T09:55:32.202Z,98157.63
2022-10-24T09:57:40.302Z,98127.84
2022-10-24T09:59:48.470Z,98146.44
2022-10-24T10:01:51.202Z,98137.59
2022-10-24T10:04:09.479Z,98141.28
2022-10-24T10:06:19.206Z,98144.03
2022-10-24T10:08:25.598Z,98139.38
2022-10-24T10:10:35.181Z,98150.25
2022-10-24T10:12:41.562Z,98135.69
2022-10-24T10:14:44.262Z,98132.66
2022-10-24T10:16:57.854Z,98143.84
2022-10-24T10:19:03.630Z,98137.25
2022-10-24T10:21:14.131Z,98139.38
2022-10-24T10:23:32.844Z,98132.00
2022-10-24T10:25:35.561Z,98123.16
2022-10-24T10:27:40.969Z,98123.50
2022-10-24T10:29:43.932Z,98130.84
2022-10-24T10:31:56.870Z,98129.75
2022-10-24T10:34:10.472Z,98119.31
2022-10-24T10:36:44.510Z,98121.22
2022-10-24T10:38:51.457Z,98115.16
2022-10-24T10:41:11.783Z,98115.16
2022-10-24T10:43:49.419Z,98110.00
2022-10-24T10:46:17.024Z,98113.53
2022-10-24T10:48:30.219Z,98108.09
2022-10-24T10:51:20.354Z,98106.50
2022-10-24T10:53:35.491Z,98101.03
2022-10-24T10:55:49.305Z,98106.31
2022-10-24T10:58:30.512Z,98096.25
2022-10-24T11:00:52.346Z,98094.16
2022-10-24T11:03:29.953Z,98091.59
2022-10-24T11:05:51.258Z,98091.91
2022-10-24T11:08:07.590Z,98097.69
2022-10-24T11:10:13.911Z,98093.97
2022-10-24T11:12:32.878Z,98097.66
2022-10-24T11:15:15.073Z,98086.09
2022-10-24T11:17:17.725Z,98097.34
2022-10-24T11:19:39.756Z,98088.69
2022-10-24T11:21:43.774Z,98091.75
2022-10-24T11:24:00.003Z,98098.31
2022-10-24T11:26:20.370Z,98085.97
2022-10-24T11:28:44.874Z,98097.84
2022-10-24T11:30:52.096Z,98091.56
2022-10-24T11:33:03.416Z,98078.41
2022-10-24T11:35:30.236Z,98087.06
2022-10-24T11:37:42.263Z,98094.94
2022-10-24T11:40:19.768Z,98089.97
2022-10-24T11:42:31.683Z,98085.63
2022-10-24T11:44:47.322Z,98093.97
2022-10-24T11:47:00.914Z,98088.16
2022-10-24T11:49:06.689Z,98088.16
2022-10-24T11:51:21.292Z,98080.81
2022-10-24T11:53:31.385Z,98088.16
2022-10-24T11:55:43.362Z,98085.13
2022-10-24T11:57:48.595Z,98104.19
2022-10-24T11:59:55.566Z,98081.59
2022-10-24T12:02:07.585Z,98087.06
2022-10-24T12:04:47.091Z,98092.19
2022-10-24T12:06:55.732Z,98081.72
2022-10-24T12:08:58.329Z,98080.31
2022-10-24T12:11:06.632Z,98082.38
2022-10-24T12:13:21.397Z,98087.47
2022-10-24T12:15:32.257Z,98081.75
2022-10-24T12:17:35.569Z,98086.88
2022-10-24T12:19:41.658Z,98083.38
2022-10-24T12:21:55.651Z,98079.81
2022-10-24T12:24:00.685Z,98087.34
2022-10-24T12:26:18.734Z,98078.03
2022-10-24T12:28:26.350Z,98084.75
2022-10-24T12:30:32.473Z,98077.25
2022-10-24T12:32:43.576Z,98081.38
2022-10-24T12:35:06.936Z,98088.13
2022-10-24T12:37:20.578Z,98082.69
2022-10-24T12:39:35.131Z,98071.78
2022-10-24T12:41:40.499Z,98074.94
2022-10-24T12:43:44.543Z,98089.72
2022-10-24T12:45:47.162Z,98080.75
2022-10-24T12:50:21.702Z,98083.94
2022-10-24T12:52:33.342Z,98075.75
2022-10-24T12:54:46.547Z,98078.16
2022-10-24T12:56:52.337Z,98069.34
2022-10-24T12:59:03.650Z,98074.78
2022-10-24T13:01:23.351Z,98078.78
2022-10-24T13:03:38.447Z,98088.88
2022-10-24T13:05:49.969Z,98083.41
2022-10-24T13:08:13.849Z,98076.38
2022-10-24T13:10:33.801Z,98083.59
2022-10-24T13:12:57.927Z,98080.06
2022-10-24T13:15:38.147Z,98082.50
2022-10-24T13:17:59.962Z,98078.50
2022-10-24T13:20:27.621Z,98084.75
2022-10-24T13:22:35.596Z,98086.69
2022-10-24T13:24:40.776Z,98079.75
2022-10-24T13:27:12.954Z,98088.06
2022-10-24T13:29:36.047Z,98085.34
2022-10-24T13:31:40.664Z,98081.97
2022-10-24T13:33:45.827Z,98085.03
2022-10-24T13:35:55.815Z,98078.91
2022-10-24T13:38:03.794Z,98091.44
2022-10-24T13:40:11.079Z,98088.72
2022-10-24T13:42:25.944Z,98093.81
2022-10-24T13:44:30.454Z,98093.81
2022-10-24T13:46:45.956Z,98088.34
2022-10-24T13:48:53.455Z,98095.44
2022-10-24T13:51:27.981Z,98114.84
2022-10-24T13:53:36.015Z,98102.34
2022-10-24T13:55:50.556Z,98098.34
2022-10-24T13:58:00.904Z,98105.72
2022-10-24T14:00:20.862Z,98107.31
2022-10-24T14:02:28.469Z,98105.38
2022-10-24T14:04:35.651Z,98106.84
2022-10-24T14:06:38.369Z,98108.91
2022-10-24T14:09:02.813Z,98103.31
2022-10-24T14:11:24.252Z,98107.63
2022-10-24T14:13:28.725Z,98105.22
2022-10-24T14:15:32.873Z,98120.97
2022-10-24T14:17:36.020Z,98114.72
2022-10-24T14:19:45.865Z,98128.78
2022-10-24T14:21:49.338Z,98121.09
2022-10-24T14:24:00.435Z,98132.34
2022-10-24T14:26:11.415Z,98137.81
2022-10-24T14:28:20.641Z,98135.72
2022-10-24T14:30:28.537Z,98137.47
2022-10-24T14:32:33.440Z,98139.06
2022-10-24T14:34:37.774Z,98137.13
2022-10-24T14:36:40.482Z,98133.28
2022-10-24T14:38:43.734Z,98137.28
2022-10-24T14:43:45.147Z,98136.94
2022-10-24T14:46:06.556Z,98151.06
2022-10-24T14:48:35.732Z,98147.88
2022-10-24T14:50:43.264Z,98150.91
2022-10-24T14:52:47.272Z,98143.53
2022-10-24T14:55:26.959Z,98161.19
2022-10-24T14:57:32.602Z,98157.78
2022-10-24T14:59:38.337Z,98163.25
2022-10-24T15:01:40.942Z,98185.06
2022-10-24T15:03:53.914Z,98168.38
2022-10-24T15:06:06.886Z,98182.22
2022-10-24T15:08:21.452Z,98175.81
2022-10-24T15:10:35.664Z,98189.75
2022-10-24T15:12:41.691Z,98197.81
2022-10-24T15:14:49.139Z,98207.75
2022-10-24T15:16:51.962Z,98195.09
2022-10-24T15:18:57.360Z,98202.31
2022-10-24T15:21:08.206Z,98211.16
2022-10-24T15:23:32.175Z,98215.97
2022-10-24T15:25:40.682Z,98218.84
2022-10-24T15:27:47.043Z,98217.72
2022-10-24T15:29:50.205Z,98220.91
2022-10-24T15:31:53.090Z,98243.06
2022-10-24T15:33:55.999Z,98231.34
2022-10-24T15:36:00.108Z,98227.66
2022-10-24T15:38:14.523Z,98238.72
2022-10-24T15:40:24.242Z,98241.09
2022-10-24T15:42:26.932Z,98248.47
2022-10-24T15:44:31.288Z,98240.78
2022-10-24T15:46:34.128Z,98241.59
2022-10-24T15:48:39.587Z,98253.59
2022-10-24T15:50:45.166Z,98252.94
2022-10-24T15:52:53.412Z,98248.31
2022-10-24T15:54:56.086Z,98256.94
2022-10-24T15:57:02.886Z,98252.75
2022-10-24T15:59:08.188Z,98264.75
2022-10-24T16:01:42.755Z,98262.69
2022-10-24T16:03:45.788Z,98263.44
2022-10-24T16:05:53.975Z,98272.56
2022-10-24T16:07:56.664Z,98280.06
2022-10-24T16:09:59.726Z,98286.50
2022-10-24T16:12:02.722Z,98280.22
2022-10-24T16:14:05.851Z,98272.88
2022-10-24T16:16:09.209Z,98268.84
2022-10-24T16:18:12.731Z,98281.66
2022-10-24T16:20:16.215Z,98282.00
2022-10-24T16:22:18.923Z,98282.47
2022-10-24T16:24:21.567Z,98285.66
2022-10-24T16:26:24.275Z,98292.69
2022-10-24T16:28:27.147Z,98284.03
2022-10-24T16:30:32.263Z,98297.03
2022-10-24T16:32:35.183Z,98304.38
2022-10-24T16:34:37.802Z,98308.72
2022-10-24T16:36:43.746Z,98307.09
2022-10-24T16:38:47.239Z,98309.81
2022-10-24T16:40:50.275Z,98317.03
2022-10-24T16:42:55.183Z,98317.03
2022-10-24T16:44:59.358Z,98316.03
2022-10-24T16:47:01.948Z,98328.34
2022-10-24T16:51:15.646Z,98323.66
2022-10-24T16:53:18.498Z,98337.59
2022-10-24T16:55:21.856Z,98341.03
2022-10-24T16:59:32.462Z,98350.00
2022-10-24T17:01:35.170Z,98344.06
2022-10-24T17:03:38.202Z,98359.09
2022-10-24T17:05:41.397Z,98350.00
2022-10-24T17:07:44.568Z,98360.88
2022-10-24T17:09:47.343Z,98362.94
2022-10-24T17:11:49.959Z,98365.66
2022-10-24T17:13:52.609Z,98354.41
2022-10-24T17:15:55.909Z,98369.00
2022-10-24T17:17:58.755Z,98371.03
2022-10-24T17:20:01.852Z,98357.84
2022-10-24T17:22:07.249Z,98370.78
2022-10-24T17:24:12.146Z,98370.00
2022-10-24T17:26:16.002Z,98390.25
2022-10-24T17:28:19.209Z,98384.72
2022-10-24T17:30:28.442Z,98378.09
2022-10-24T17:32:33.254Z,98381.88
2022-10-24T17:34:36.778Z,98388.94
2022-10-24T17:36:42.439Z,98380.50
2022-10-24T17:39:27.691Z,98402.97
2022-10-24T17:41:36.694Z,98401.25
2022-10-24T17:43:39.463Z,98410.91
2022-10-24T17:45:42.493Z,98405.91
2022-10-24T17:49:48.665Z,98421.69
2022-10-24T17:51:51.268Z,98428.19
2022-10-24T17:53:54.130Z,98436.34
2022-10-24T17:55:56.766Z,98435.63
2022-10-24T17:57:59.315Z,98446.59
2022-10-24T18:00:02.511Z,98445.69
2022-10-24T18:02:11.836Z,98450.88
2022-10-24T18:04:15.390Z,98442.03
2022-10-24T18:06:17.961Z,98444.63
2022-10-24T18:08:20.494Z,98446.13
2022-10-24T18:10:23.143Z,98450.00
2022-10-24T18:12:25.886Z,98455.53
2022-10-24T18:14:28.593Z,98464.56
2022-10-24T18:16:31.286Z,98461.84
2022-10-24T18:18:33.918Z,98465.97
2022-10-24T18:20:36.520Z,98474.97
2022-10-24T18:22:39.528Z,98477.50
2022-10-24T18:24:42.446Z,98472.94
2022-10-24T18:26:46.849Z,98479.53
2022-10-24T18:28:51.444Z,98487.69
2022-10-24T18:30:54.036Z,98487.53
2022-10-24T18:32:56.713Z,98487.53
2022-10-24T18:34:59.566Z,98494.06
2022-10-24T18:37:02.136Z,98495.44
2022-10-24T18:39:05.332Z,98489.00
2022-10-24T18:41:38.619Z,98497.47
2022-10-24T18:43:49.041Z,98491.53
2022-10-24T18:45:53.589Z,98484.97
2022-10-24T18:47:56.387Z,98502.81
2022-10-24T18:50:00.336Z,98499.31
2022-10-24T18:52:11.836Z,98506.72
2022-10-24T18:56:22.470Z,98503.03
2022-10-24T18:58:25.267Z,98504.06
2022-10-24T19:00:30.287Z,98502.69
2022-10-24T19:02:43.526Z,98506.78
2022-10-24T19:04:53.130Z,98503.25
2022-10-24T19:07:00.182Z,98503.81
2022-10-24T19:09:03.037Z,98506.25
2022-10-24T19:11:05.712Z,98510.63
2022-10-24T19:13:08.473Z,98508.78
2022-10-24T19:15:12.104Z,98510.13
2022-10-24T19:17:16.454Z,98518.31
2022-10-24T19:21:39.703Z,98531.13
2022-10-24T19:23:42.281Z,98521.88
2022-10-24T19:25:45.142Z,98527.03
2022-10-24T19:27:49.585Z,98528.63
2022-10-24T19:29:52.148Z,98520.28
2022-10-24T19:31:54.729Z,98521.09
2022-10-24T19:33:57.390Z,98525.47
2022-10-24T19:36:04.531Z,98520.31
2022-10-24T19:38:07.229Z,98523.03
2022-10-24T19:40:11.040Z,98529.31
2022-10-24T19:42:14.851Z,98533.66
2022-10-24T19:44:18.455Z,98536.63
2022-10-24T19:46:21.488Z,98544.53
2022-10-24T19:48:24.142Z,98535.66
2022-10-24T19:50:26.810Z,98546.47
2022-10-24T19:52:29.370Z,98554.06
2022-10-24T19:54:32.044Z,98536.81
2022-10-24T19:56:34.568Z,98549.81
2022-10-24T19:58:37.533Z,98550.91
2022-10-24T20:00:41.378Z,98545.78
2022-10-24T20:02:44.134Z,98556.63
2022-10-24T20:04:49.215Z,98559.06
2022-10-24T20:06:51.979Z,98558.81
2022-10-24T20:08:54.606Z,98561.22
2022-10-24T20:10:57.455Z,98561.56
2022-10-24T20:13:00.452Z,98555.03
2022-10-24T20:15:03.130Z,98564.53
2022-10-24T20:17:06.935Z,98561.31
2022-10-24T20:19:09.661Z,98561.91
2022-10-24T20:21:16.645Z,98563.28
2022-10-24T20:23:21.129Z,98572.78
2022-10-24T20:25:23.762Z,98567.91
2022-10-24T20:27:26.403Z,98575.81
2022-10-24T20:29:29.025Z,98569.88
2022-10-24T20:31:34.872Z,98586.16
2022-10-24T20:33:37.567Z,98575.88
2022-10-24T20:35:40.373Z,98587.00
2022-10-24T20:37:45.365Z,98581.09
2022-10-24T20:39:48.153Z,98578.66
2022-10-24T20:41:53.969Z,98588.69
2022-10-24T20:43:57.294Z,98587.06
2022-10-24T20:46:03.358Z,98592.75
2022-10-24T20:48:06.081Z,98594.94
2022-10-24T20:50:09.497Z,98605.50
2022-10-24T20:54:19.770Z,98601.75
2022-10-24T20:56:26.055Z,98597.44
2022-10-24T20:58:28.746Z,98598.00
2022-10-24T21:00:32.747Z,98598.56
2022-10-24T21:02:37.044Z,98601.81
2022-10-24T21:04:39.814Z,98608.31
2022-10-24T21:06:42.437Z,98609.97
2022-10-24T21:08:48.220Z,98607.78
2022-10-24T21:10:50.928Z,98604.03
2022-10-24T21:12:54.116Z,98606.72
2022-10-24T21:14:57.102Z,98614.84
2022-10-24T21:16:59.705Z,98608.63
2022-10-24T21:19:02.825Z,98604.03
2022-10-24T21:21:10.863Z,98616.22
2022-10-24T21:23:13.973Z,98621.38
2022-10-24T21:25:16.700Z,98624.91
2022-10-24T21:27:19.319Z,98616.00
2022-10-24T21:29:32.777Z,98624.66
2022-10-24T21:31:36.508Z,98623.56
2022-10-24T21:33:41.647Z,98625.19
2022-10-24T21:35:44.246Z,98629.25
2022-10-24T21:37:47.056Z,98625.75
2022-10-24T21:39:49.836Z,98629.53
2022-10-24T21:41:52.515Z,98629.81
2022-10-24T21:43:55.354Z,98631.44
2022-10-24T21:46:05.703Z,98638.19
2022-10-24T21:48:08.250Z,98642.75
2022-10-24T21:50:10.835Z,98646.53
2022-10-24T21:52:13.595Z,98644.06
2022-10-24T21:54:18.767Z,98646.75
2022-10-24T21:56:23.807Z,98643.81
2022-10-24T21:58:26.350Z,98650.59
2022-10-24T22:00:28.889Z,98658.16
2022-10-24T22:02:31.606Z,98646.03
2022-10-24T22:04:34.263Z,98657.41
2022-10-24T22:06:37.346Z,98652.00
2022-10-24T22:08:39.914Z,98659.84
2022-10-24T22:10:42.464Z,98641.47
2022-10-24T22:12:45.058Z,98665.50
2022-10-24T22:14:47.675Z,98667.66
2022-10-24T22:16:50.230Z,98665.81
2022-10-24T22:18:53.051Z,98668.50
2022-10-24T22:20:55.803Z,98667.41
2022-10-24T22:22:58.342Z,98666.84
2022-10-24T22:25:00.991Z,98675.78
2022-10-24T22:27:03.633Z,98678.72
2022-10-24T22:29:07.561Z,98671.94
2022-10-24T22:31:14.177Z,98688.44
2022-10-24T22:33:32.821Z,98673.56
2022-10-24T22:35:35.884Z,98680.31
2022-10-24T22:37:38.680Z,98673.78
2022-10-24T22:39:41.648Z,98691.06
2022-10-24T22:41:45.235Z,98693.72
2022-10-24T22:43:48.229Z,98690.75
2022-10-24T22:46:44.942Z,98693.44
2022-10-24T22:48:50.881Z,98692.63
2022-10-24T22:50:55.308Z,98700.47
2022-10-24T22:52:58.450Z,98696.09
2022-10-24T22:55:03.854Z,98703.16
2022-10-24T22:57:07.551Z,98696.94
2022-10-24T22:59:10.452Z,98701.50
2022-10-24T23:01:19.118Z,98709.84
2022-10-24T23:03:59.526Z,98697.97
2022-10-24T23:06:23.107Z,98709.28
2022-10-24T23:08:39.369Z,98709.81
2022-10-24T23:10:42.185Z,98713.88
2022-10-24T23:12:45.161Z,98705.25
2022-10-24T23:14:49.480Z,98704.69
2022-10-24T23:17:00.776Z,98702.78
2022-10-24T23:19:32.790Z,98707.63
2022-10-24T23:21:41.538Z,98710.84
2022-10-24T23:23:44.494Z,98700.00
2022-10-24T23:25:57.037Z,98711.34
2022-10-24T23:28:21.782Z,98705.66
2022-10-24T23:30:24.574Z,98710.81
2022-10-24T23:32:47.573Z,98704.56
2022-10-24T23:34:51.292Z,98704.03
2022-10-24T23:37:20.876Z,98710.19
2022-10-24T23:39:42.370Z,98719.13
2022-10-24T23:42:05.000Z,98709.63
2022-10-24T23:44:46.335Z,98708.28
2022-10-24T23:47:58.321Z,98715.03
2022-10-24T23:50:22.569Z,98714.81
2022-10-24T23:53:05.035Z,98719.69
2022-10-24T23:55:29.304Z,98714.00
2022-10-24T23:57:32.121Z,98722.94
2022-10-24T23:59:34.699Z,98715.59
